• Join FlightAware (Why Join?)
  • Login
  • US Flag 
Trick or treat! (Boo!!) 
10:04PM EDT


 

Airport Tracker/Info


-or-


 

Live Flight TrackerFlight Track Log ✈ OPT335 ✈ 29-May-2013 ✈ KLOT - KCLE

Flight Track Log - Related Links

Times and Time Zones

All times are in EDT time to prevent confusion due to time zone crossing. See the OPT335 flight status page for this flight to view local times or setup timezone preferences in your user account.

Time Position Orientation Groundspeed Altitude Reporting Facility
EDT Latitude Longitude Course Direction KTS MPH feet Rate Location/Type
03:06PM 41.5780 -88.1100 200° South 200 230 3,100  Level FlightAware
03:06PM 41.5560 -88.0880 143° Southeast 217 250 4,500 2,700 Climbing FlightAware
03:07PM 41.5470 -88.0780 140° Southeast 228 262 4,900 840 Climbing FlightAware
03:07PM 41.5260 -88.0400 126° Southeast 265 305 5,100 1,020 Climbing FlightAware
03:07PM 41.5180 -88.0020 106° East 276 318 5,800 1,920 Climbing FlightAware
03:08PM 41.5280 -87.9270 80° East 284 327 7,300 2,280 Climbing FlightAware
03:08PM 41.5420 -87.9110 41° Northeast 295 339 8,100 3,540 Climbing FlightAware
03:09PM 41.5800 -87.8830 29° Northeast 312 359 9,900 3,720 Climbing FlightAware
03:10PM 41.6320 -87.8440 29° Northeast 320 368 12,500 3,480 Climbing FlightAware
03:10PM 41.6860 -87.8010 31° Northeast 337 388 14,700 2,820 Climbing FlightAware
03:11PM 41.7370 -87.7600 31° Northeast 341 392 16,800 3,600 Climbing FlightAware
03:12PM 41.7830 -87.7150 36° Northeast 337 388 19,300 4,500 Climbing FlightAware
03:12PM 41.7980 -87.6840 57° Northeast 341 392 20,200 3,180 Climbing FlightAware
03:12PM 41.8010 -87.6610 80° East 339 390 20,900 2,760 Climbing FlightAware
03:13PM 41.7970 -87.5670 93° East 356 410 22,800 2,400 Climbing FlightAware
03:13PM 41.8010 -87.4700 87° East 374 430 24,300 2,340 Climbing FlightAware
03:14PM 41.8100 -87.3650 83° East 382 440 26,100 2,400 Climbing FlightAware
03:15PM 41.8170 -87.2700 84° East 387 445 27,700 2,400 Climbing FlightAware
03:16PM 41.8250 -87.1690 84° East 392 451 29,400 2,160 Climbing FlightAware
03:16PM 41.8320 -87.0690 85° East 404 465 30,800 1,080 Climbing FlightAware
03:17PM 41.8410 -86.9530 84° East 438 504 31,000 120 Climbing FlightAware
03:18PM 41.8510 -86.8440 83° East 450 518 31,000  Level FlightAware
03:18PM 41.8740 -86.7310 75° East 456 525 31,000  Level FlightAware
03:19PM 41.8900 -86.6140 80° East 458 527 31,000  Level FlightAware
03:20PM 41.8970 -86.5060 85° East 461 531 31,000  Level FlightAware
03:20PM 41.9050 -86.3840 85° East 463 533 31,000  Level FlightAware
03:21PM 41.9120 -86.2780 85° East 464 534 31,000  Level FlightAware
03:22PM 41.9230 -86.0940 85° East 464 534 31,000  Level FlightAware
03:23PM 41.9290 -85.9860 86° East 463 533 31,000  Level FlightAware
03:23PM 41.9370 -85.8580 85° East 464 534 31,000  Level FlightAware
03:24PM 41.9420 -85.7570 86° East 464 534 31,000  Level FlightAware
03:25PM 41.9500 -85.6240 85° East 463 533 31,000  Level FlightAware
03:26PM 41.9570 -85.4900 86° East 460 529 31,000  Level FlightAware
03:26PM 41.9630 -85.3690 86° East 460 529 31,000  Level FlightAware
03:27PM 41.9720 -85.2070 86° East 460 529 31,000  Level FlightAware
03:28PM 41.9800 -85.0580 86° East 460 529 31,000  Level FlightAware
03:29PM 41.9870 -84.8980 87° East 457 526 31,000  Level FlightAware
03:30PM 41.9920 -84.8020 86° East 457 526 31,000  Level FlightAware
03:30PM 41.9990 -84.6670 86° East 458 527 31,000  Level FlightAware
03:31PM 42.0040 -84.5410 87° East 459 528 31,000 -540 Level FlightAware
03:32PM 42.0090 -84.4310 86° East 470 541 30,300 -1,200 Descending FlightAware
03:33PM 42.0150 -84.2990 86° East 474 545 29,400 -1,140 Descending FlightAware
03:33PM 42.0200 -84.1690 87° East 472 543 28,600 -600 Descending FlightAware
03:34PM 42.0250 -84.0720 86° East 472 543 28,600 -1,260 Level FlightAware
03:35PM 42.0300 -83.9420 87° East 461 531 27,000 -1,800 Descending FlightAware
03:35PM 42.0330 -83.8530 87° East 458 527 26,400 -480 Descending FlightAware
03:36PM 42.0370 -83.7490 87° East 458 527 26,400  Level FlightAware
03:36PM 42.0410 -83.6620 86° East 458 527 26,400 -2,040 Level FlightAware
03:37PM 42.0450 -83.5410 87° East 455 524 24,200 -1,980 Descending FlightAware
03:38PM 42.0450 -83.4190 90° East 438 504 24,000 -180 Descending FlightAware
03:38PM 42.0440 -83.4130 103° East 439 505 24,000 -780 Level FlightAware
03:39PM 42.0230 -83.1960 97° East 443 510 23,000 -1,260 Descending FlightAware
03:40PM 42.0150 -83.1160 98° East 445 512 22,300 -540 Descending FlightAware
03:41PM 42.0080 -83.0330 96° East 448 516 22,100 -180 Descending FlightAware
03:41PM 42.0000 -82.9480 97° East 448 516 22,100 -1,680 Level FlightAware
03:42PM 41.9820 -82.7700 98° East 452 520 19,400 -2,940 Descending FlightAware
03:43PM 41.9660 -82.6170 98° East 437 503 17,100 -2,880 Descending FlightAware
03:44PM 41.9540 -82.5360 101° East 423 487 15,500 -1,200 Descending FlightAware
03:44PM 41.9360 -82.4480 105° East 423 487 15,500  Level FlightAware
03:45PM 41.9130 -82.3430 106° East 423 487 15,500  Level FlightAware
03:46PM 41.8970 -82.2660 106° East 423 487 15,500 -5,040 Level FlightAware
03:46PM 41.7930 -82.1610 143° Southeast 299 344 9,900 -5,220 Descending FlightAware
03:47PM 41.7580 -82.1100 133° Southeast 300 345 9,700 -180 Descending FlightAware
03:48PM 41.7280 -82.0650 132° Southeast 300 345 9,700  Level FlightAware
03:48PM 41.7060 -82.0330 133° Southeast 300 345 9,700 -3,120 Level FlightAware
03:48PM 41.6760 -81.9900 133° Southeast 295 339 7,000 -3,960 Descending FlightAware
03:49PM 41.6590 -81.9650 132° Southeast 283 326 6,900 -180 Descending FlightAware
03:49PM 41.6390 -81.9330 130° Southeast 274 315 6,900  Level FlightAware
03:50PM 41.6180 -81.9000 130° Southeast 279 321 6,900  Level FlightAware
03:50PM 41.6100 -81.8680 108° East 290 334 6,900 -300 Level FlightAware
03:50PM 41.5980 -81.8180 108° East 294 338 6,700 -1,200 Descending FlightAware
03:51PM 41.5870 -81.7700 107° East 279 321 5,800 -1,980 Descending FlightAware
03:51PM 41.5730 -81.7370 120° Southeast 256 295 5,000 -2,040 Descending FlightAware
03:52PM 41.5500 -81.7110 140° Southeast 243 280 4,100 -2,100 Descending FlightAware
03:52PM 41.5220 -81.6980 161° South 231 266 3,200 -1,200 Descending FlightAware
03:53PM 41.4940 -81.7240 215° Southwest 211 243 2,900 -420 Descending FlightAware
03:53PM 41.4890 -81.7320 230° Southwest 210 242 2,900 -180 Level FlightAware
03:53PM 41.4720 -81.7590 230° Southwest 176 203 2,800 -300 Descending FlightAware
03:54PM 41.4640 -81.7720 231° Southwest 151 174 2,700 -720 Descending FlightAware
03:54PM 41.4530 -81.7890 229° Southwest 126 145 2,300 -1,080 Descending FlightAware
03:55PM 41.4420 -81.8070 231° Southwest 121 139 1,700 -1,140 Descending FlightAware
03:55PM 41.4330 -81.8210 229° Southwest 118 136 1,300 -900 Descending FlightAware
03:55PM 41.4270 -81.8300 228° Southwest 112 129 1,100 -720 Descending FlightAware
03:56PM 41.4190 -81.8440 233° Southwest 104 120 800 -360 Descending FlightAware
03:56PM 41.4120 -81.8540 227° Southwest 104 120 800  Level FlightAware
04:04PM 41.4094 -81.8547 230° Southwest  Level Estimated